sensor_id;sensor_type;location;lat;lon;timestamp;P1;durP1;ratioP1;P2;durP2;ratioP2
70270;SDS011;57680;54.292;18.598;2023-05-18T00:00:49;5.13;;;1.30;;
70270;SDS011;57680;54.292;18.598;2023-05-18T00:03:14;7.10;;;1.23;;
70270;SDS011;57680;54.292;18.598;2023-05-18T00:05:40;5.50;;;1.10;;
70270;SDS011;57680;54.292;18.598;2023-05-18T00:08:06;6.10;;;1.13;;
70270;SDS011;57680;54.292;18.598;2023-05-18T00:10:31;3.67;;;0.90;;
70270;SDS011;57680;54.292;18.598;2023-05-18T00:12:57;12.20;;;1.57;;
70270;SDS011;57680;54.292;18.598;2023-05-18T00:15:22;7.45;;;1.23;;
70270;SDS011;57680;54.292;18.598;2023-05-18T00:17:47;5.53;;;0.93;;
70270;SDS011;57680;54.292;18.598;2023-05-18T00:20:13;6.23;;;0.90;;
70270;SDS011;57680;54.292;18.598;2023-05-18T00:22:38;4.30;;;0.87;;
70270;SDS011;57680;54.292;18.598;2023-05-18T00:25:04;3.80;;;0.90;;
70270;SDS011;57680;54.292;18.598;2023-05-18T00:27:29;4.83;;;0.80;;
70270;SDS011;57680;54.292;18.598;2023-05-18T00:29:55;5.30;;;0.90;;
70270;SDS011;57680;54.292;18.598;2023-05-18T00:32:20;4.53;;;1.03;;
70270;SDS011;57680;54.292;18.598;2023-05-18T00:34:45;5.67;;;1.20;;
70270;SDS011;57680;54.292;18.598;2023-05-18T00:37:11;3.97;;;0.90;;
70270;SDS011;57680;54.292;18.598;2023-05-18T00:39:37;4.37;;;0.73;;
70270;SDS011;57680;54.292;18.598;2023-05-18T00:42:02;5.75;;;1.40;;
70270;SDS011;57680;54.292;18.598;2023-05-18T00:44:28;7.07;;;1.33;;
70270;SDS011;57680;54.292;18.598;2023-05-18T00:46:54;4.47;;;1.10;;
70270;SDS011;57680;54.292;18.598;2023-05-18T00:49:19;6.07;;;1.17;;
70270;SDS011;57680;54.292;18.598;2023-05-18T00:51:44;4.00;;;0.90;;
70270;SDS011;57680;54.292;18.598;2023-05-18T00:54:10;5.55;;;1.27;;
70270;SDS011;57680;54.292;18.598;2023-05-18T00:56:36;7.00;;;1.17;;
70270;SDS011;57680;54.292;18.598;2023-05-18T00:59:02;4.80;;;1.23;;
70270;SDS011;57680;54.292;18.598;2023-05-18T01:01:31;4.67;;;1.03;;
70270;SDS011;57680;54.292;18.598;2023-05-18T01:03:57;5.83;;;1.13;;
70270;SDS011;57680;54.292;18.598;2023-05-18T01:06:23;5.72;;;1.00;;
70270;SDS011;57680;54.292;18.598;2023-05-18T01:08:48;5.47;;;0.93;;
70270;SDS011;57680;54.292;18.598;2023-05-18T01:11:20;4.93;;;0.90;;
70270;SDS011;57680;54.292;18.598;2023-05-18T01:16:38;7.47;;;1.00;;
70270;SDS011;57680;54.292;18.598;2023-05-18T01:25:20;5.07;;;0.90;;
70270;SDS011;57680;54.292;18.598;2023-05-18T01:28:07;5.65;;;1.20;;
70270;SDS011;57680;54.292;18.598;2023-05-18T01:30:38;4.55;;;1.10;;
70270;SDS011;57680;54.292;18.598;2023-05-18T01:33:09;6.35;;;1.85;;
70270;SDS011;57680;54.292;18.598;2023-05-18T01:35:36;7.43;;;1.30;;
70270;SDS011;57680;54.292;18.598;2023-05-18T01:38:01;6.35;;;1.02;;
70270;SDS011;57680;54.292;18.598;2023-05-18T01:40:29;6.22;;;1.13;;
70270;SDS011;57680;54.292;18.598;2023-05-18T01:43:00;4.60;;;1.15;;
70270;SDS011;57680;54.292;18.598;2023-05-18T01:45:31;4.78;;;1.30;;
70270;SDS011;57680;54.292;18.598;2023-05-18T01:47:57;4.13;;;1.00;;
70270;SDS011;57680;54.292;18.598;2023-05-18T01:50:28;7.03;;;1.25;;
70270;SDS011;57680;54.292;18.598;2023-05-18T01:53:05;9.27;;;1.30;;
70270;SDS011;57680;54.292;18.598;2023-05-18T01:55:43;4.95;;;1.42;;
70270;SDS011;57680;54.292;18.598;2023-05-18T01:58:09;6.13;;;1.10;;
70270;SDS011;57680;54.292;18.598;2023-05-18T02:00:38;7.07;;;1.40;;
70270;SDS011;57680;54.292;18.598;2023-05-18T02:03:03;5.70;;;1.40;;
70270;SDS011;57680;54.292;18.598;2023-05-18T02:05:29;5.03;;;1.13;;
70270;SDS011;57680;54.292;18.598;2023-05-18T02:07:54;4.10;;;1.13;;
70270;SDS011;57680;54.292;18.598;2023-05-18T02:10:20;7.53;;;1.50;;
70270;SDS011;57680;54.292;18.598;2023-05-18T02:12:45;6.57;;;1.30;;
70270;SDS011;57680;54.292;18.598;2023-05-18T02:15:12;8.07;;;1.50;;
70270;SDS011;57680;54.292;18.598;2023-05-18T02:17:38;6.50;;;1.30;;
70270;SDS011;57680;54.292;18.598;2023-05-18T02:20:04;6.70;;;1.03;;
70270;SDS011;57680;54.292;18.598;2023-05-18T02:22:30;7.32;;;1.70;;
70270;SDS011;57680;54.292;18.598;2023-05-18T02:24:56;5.50;;;1.50;;
70270;SDS011;57680;54.292;18.598;2023-05-18T02:27:21;7.23;;;1.03;;
70270;SDS011;57680;54.292;18.598;2023-05-18T02:29:46;8.17;;;1.60;;
70270;SDS011;57680;54.292;18.598;2023-05-18T02:32:12;5.30;;;1.50;;
70270;SDS011;57680;54.292;18.598;2023-05-18T02:34:38;7.78;;;1.40;;
70270;SDS011;57680;54.292;18.598;2023-05-18T02:37:04;6.07;;;1.13;;
70270;SDS011;57680;54.292;18.598;2023-05-18T02:39:29;7.20;;;1.93;;
70270;SDS011;57680;54.292;18.598;2023-05-18T02:41:55;6.45;;;1.25;;
70270;SDS011;57680;54.292;18.598;2023-05-18T02:44:20;12.47;;;1.50;;
70270;SDS011;57680;54.292;18.598;2023-05-18T02:46:46;6.23;;;1.67;;
70270;SDS011;57680;54.292;18.598;2023-05-18T02:49:11;6.88;;;1.60;;
70270;SDS011;57680;54.292;18.598;2023-05-18T02:51:37;7.87;;;1.30;;
70270;SDS011;57680;54.292;18.598;2023-05-18T02:54:02;5.27;;;1.53;;
70270;SDS011;57680;54.292;18.598;2023-05-18T02:56:28;7.20;;;1.60;;
70270;SDS011;57680;54.292;18.598;2023-05-18T02:58:53;9.73;;;2.03;;
70270;SDS011;57680;54.292;18.598;2023-05-18T03:01:19;8.10;;;2.13;;
70270;SDS011;57680;54.292;18.598;2023-05-18T03:03:44;8.63;;;1.70;;
70270;SDS011;57680;54.292;18.598;2023-05-18T03:06:09;8.83;;;1.77;;
70270;SDS011;57680;54.292;18.598;2023-05-18T03:08:35;7.15;;;1.83;;
70270;SDS011;57680;54.292;18.598;2023-05-18T03:11:01;7.70;;;1.70;;
70270;SDS011;57680;54.292;18.598;2023-05-18T03:13:27;5.60;;;1.58;;
70270;SDS011;57680;54.292;18.598;2023-05-18T03:15:54;7.33;;;1.70;;
70270;SDS011;57680;54.292;18.598;2023-05-18T03:18:24;7.60;;;1.50;;
70270;SDS011;57680;54.292;18.598;2023-05-18T03:20:53;7.45;;;1.50;;
70270;SDS011;57680;54.292;18.598;2023-05-18T03:23:18;8.47;;;1.80;;
70270;SDS011;57680;54.292;18.598;2023-05-18T03:25:45;5.43;;;1.60;;
70270;SDS011;57680;54.292;18.598;2023-05-18T03:28:11;7.87;;;1.60;;
70270;SDS011;57680;54.292;18.598;2023-05-18T03:30:37;7.22;;;1.67;;
70270;SDS011;57680;54.292;18.598;2023-05-18T03:33:02;8.43;;;2.15;;
70270;SDS011;57680;54.292;18.598;2023-05-18T03:35:28;5.50;;;1.40;;
70270;SDS011;57680;54.292;18.598;2023-05-18T03:37:53;8.77;;;1.70;;
70270;SDS011;57680;54.292;18.598;2023-05-18T03:40:19;8.68;;;1.60;;
70270;SDS011;57680;54.292;18.598;2023-05-18T03:42:45;8.43;;;1.85;;
70270;SDS011;57680;54.292;18.598;2023-05-18T03:45:11;5.87;;;1.57;;
70270;SDS011;57680;54.292;18.598;2023-05-18T03:47:38;7.05;;;1.90;;
70270;SDS011;57680;54.292;18.598;2023-05-18T03:50:04;6.03;;;1.63;;
70270;SDS011;57680;54.292;18.598;2023-05-18T03:52:30;7.57;;;1.98;;
70270;SDS011;57680;54.292;18.598;2023-05-18T03:54:56;5.75;;;1.30;;
70270;SDS011;57680;54.292;18.598;2023-05-18T03:57:22;5.80;;;1.60;;
70270;SDS011;57680;54.292;18.598;2023-05-18T03:59:47;8.53;;;1.50;;
70270;SDS011;57680;54.292;18.598;2023-05-18T04:02:12;5.50;;;1.30;;
70270;SDS011;57680;54.292;18.598;2023-05-18T04:04:38;3.20;;;1.10;;
70270;SDS011;57680;54.292;18.598;2023-05-18T04:07:04;5.85;;;1.30;;
70270;SDS011;57680;54.292;18.598;2023-05-18T04:09:29;6.07;;;1.27;;
70270;SDS011;57680;54.292;18.598;2023-05-18T04:11:55;7.33;;;1.37;;
70270;SDS011;57680;54.292;18.598;2023-05-18T04:14:20;5.87;;;1.47;;
70270;SDS011;57680;54.292;18.598;2023-05-18T04:16:45;3.73;;;1.20;;
70270;SDS011;57680;54.292;18.598;2023-05-18T04:19:11;7.68;;;1.23;;
70270;SDS011;57680;54.292;18.598;2023-05-18T04:21:37;7.17;;;1.40;;
70270;SDS011;57680;54.292;18.598;2023-05-18T04:24:02;7.50;;;1.30;;
70270;SDS011;57680;54.292;18.598;2023-05-18T04:26:29;8.45;;;1.63;;
70270;SDS011;57680;54.292;18.598;2023-05-18T04:28:54;6.80;;;1.40;;
70270;SDS011;57680;54.292;18.598;2023-05-18T04:31:19;6.20;;;1.40;;
70270;SDS011;57680;54.292;18.598;2023-05-18T04:33:45;6.65;;;1.30;;
70270;SDS011;57680;54.292;18.598;2023-05-18T04:36:11;6.93;;;1.20;;
70270;SDS011;57680;54.292;18.598;2023-05-18T04:38:36;5.97;;;1.20;;
70270;SDS011;57680;54.292;18.598;2023-05-18T04:41:02;5.45;;;1.42;;
70270;SDS011;57680;54.292;18.598;2023-05-18T04:43:28;5.35;;;1.15;;
70270;SDS011;57680;54.292;18.598;2023-05-18T04:45:53;5.63;;;1.20;;
70270;SDS011;57680;54.292;18.598;2023-05-18T04:48:18;5.30;;;1.30;;
70270;SDS011;57680;54.292;18.598;2023-05-18T04:50:44;6.53;;;1.40;;
70270;SDS011;57680;54.292;18.598;2023-05-18T04:53:10;8.75;;;1.80;;
70270;SDS011;57680;54.292;18.598;2023-05-18T04:55:36;5.23;;;1.67;;
70270;SDS011;57680;54.292;18.598;2023-05-18T04:58:01;6.93;;;1.98;;
70270;SDS011;57680;54.292;18.598;2023-05-18T05:00:28;5.83;;;1.53;;
70270;SDS011;57680;54.292;18.598;2023-05-18T05:02:54;7.72;;;1.70;;
70270;SDS011;57680;54.292;18.598;2023-05-18T05:05:23;6.18;;;1.52;;
70270;SDS011;57680;54.292;18.598;2023-05-18T05:07:49;5.40;;;1.00;;
70270;SDS011;57680;54.292;18.598;2023-05-18T05:10:16;5.60;;;1.30;;
70270;SDS011;57680;54.292;18.598;2023-05-18T05:12:43;7.17;;;1.20;;
70270;SDS011;57680;54.292;18.598;2023-05-18T05:15:08;6.22;;;1.40;;
70270;SDS011;57680;54.292;18.598;2023-05-18T05:17:34;4.33;;;1.07;;
70270;SDS011;57680;54.292;18.598;2023-05-18T05:19:59;5.80;;;1.10;;
70270;SDS011;57680;54.292;18.598;2023-05-18T05:22:25;5.90;;;0.97;;
70270;SDS011;57680;54.292;18.598;2023-05-18T05:24:51;5.43;;;0.90;;
70270;SDS011;57680;54.292;18.598;2023-05-18T05:27:16;4.20;;;1.07;;
70270;SDS011;57680;54.292;18.598;2023-05-18T05:29:44;4.40;;;1.07;;
70270;SDS011;57680;54.292;18.598;2023-05-18T05:32:10;4.70;;;1.00;;
70270;SDS011;57680;54.292;18.598;2023-05-18T05:34:35;4.20;;;1.08;;
70270;SDS011;57680;54.292;18.598;2023-05-18T05:37:02;5.97;;;1.13;;
70270;SDS011;57680;54.292;18.598;2023-05-18T05:39:27;4.38;;;0.88;;
70270;SDS011;57680;54.292;18.598;2023-05-18T05:41:52;5.57;;;1.20;;
70270;SDS011;57680;54.292;18.598;2023-05-18T05:44:18;5.40;;;0.97;;
70270;SDS011;57680;54.292;18.598;2023-05-18T05:46:43;3.93;;;0.80;;
70270;SDS011;57680;54.292;18.598;2023-05-18T05:49:09;5.03;;;0.80;;
70270;SDS011;57680;54.292;18.598;2023-05-18T05:51:34;3.77;;;0.83;;
70270;SDS011;57680;54.292;18.598;2023-05-18T05:53:59;2.50;;;0.70;;
70270;SDS011;57680;54.292;18.598;2023-05-18T05:56:25;4.53;;;0.90;;
70270;SDS011;57680;54.292;18.598;2023-05-18T05:58:50;4.85;;;1.08;;
70270;SDS011;57680;54.292;18.598;2023-05-18T06:01:16;3.50;;;0.80;;
70270;SDS011;57680;54.292;18.598;2023-05-18T06:03:41;5.13;;;0.90;;
70270;SDS011;57680;54.292;18.598;2023-05-18T06:06:07;3.30;;;0.60;;
70270;SDS011;57680;54.292;18.598;2023-05-18T06:08:32;2.85;;;0.63;;
70270;SDS011;57680;54.292;18.598;2023-05-18T06:10:58;2.73;;;0.70;;
70270;SDS011;57680;54.292;18.598;2023-05-18T06:13:23;4.40;;;0.60;;
70270;SDS011;57680;54.292;18.598;2023-05-18T06:15:48;3.47;;;0.53;;
70270;SDS011;57680;54.292;18.598;2023-05-18T06:18:14;4.00;;;0.47;;
70270;SDS011;57680;54.292;18.598;2023-05-18T06:20:39;2.40;;;0.60;;
70270;SDS011;57680;54.292;18.598;2023-05-18T06:23:05;4.13;;;0.50;;
70270;SDS011;57680;54.292;18.598;2023-05-18T06:25:30;2.40;;;0.30;;
70270;SDS011;57680;54.292;18.598;2023-05-18T06:27:56;3.13;;;0.70;;
70270;SDS011;57680;54.292;18.598;2023-05-18T06:30:21;2.60;;;0.50;;
70270;SDS011;57680;54.292;18.598;2023-05-18T06:32:47;3.70;;;0.57;;
70270;SDS011;57680;54.292;18.598;2023-05-18T06:35:12;3.08;;;0.57;;
70270;SDS011;57680;54.292;18.598;2023-05-18T06:37:37;2.97;;;0.60;;
70270;SDS011;57680;54.292;18.598;2023-05-18T06:40:03;3.07;;;0.50;;
70270;SDS011;57680;54.292;18.598;2023-05-18T06:42:30;2.30;;;0.47;;
70270;SDS011;57680;54.292;18.598;2023-05-18T06:44:55;4.55;;;0.75;;
70270;SDS011;57680;54.292;18.598;2023-05-18T06:47:21;1.97;;;0.40;;
70270;SDS011;57680;54.292;18.598;2023-05-18T06:49:46;2.23;;;0.40;;
70270;SDS011;57680;54.292;18.598;2023-05-18T06:52:12;2.60;;;0.40;;
70270;SDS011;57680;54.292;18.598;2023-05-18T06:54:37;3.47;;;0.40;;
70270;SDS011;57680;54.292;18.598;2023-05-18T06:57:03;1.50;;;0.40;;
70270;SDS011;57680;54.292;18.598;2023-05-18T06:59:28;2.47;;;0.30;;
70270;SDS011;57680;54.292;18.598;2023-05-18T07:01:54;1.93;;;0.37;;
70270;SDS011;57680;54.292;18.598;2023-05-18T07:04:19;1.83;;;0.47;;
70270;SDS011;57680;54.292;18.598;2023-05-18T07:06:45;2.53;;;0.33;;
70270;SDS011;57680;54.292;18.598;2023-05-18T07:09:10;2.27;;;0.63;;
70270;SDS011;57680;54.292;18.598;2023-05-18T07:11:36;1.67;;;0.30;;
70270;SDS011;57680;54.292;18.598;2023-05-18T07:14:02;2.40;;;0.40;;
70270;SDS011;57680;54.292;18.598;2023-05-18T07:16:27;1.70;;;0.60;;
70270;SDS011;57680;54.292;18.598;2023-05-18T07:18:53;2.15;;;0.43;;
70270;SDS011;57680;54.292;18.598;2023-05-18T07:21:19;1.93;;;0.20;;
70270;SDS011;57680;54.292;18.598;2023-05-18T07:23:45;1.85;;;0.40;;
70270;SDS011;57680;54.292;18.598;2023-05-18T07:26:10;2.67;;;0.40;;
70270;SDS011;57680;54.292;18.598;2023-05-18T07:28:36;1.63;;;0.43;;
70270;SDS011;57680;54.292;18.598;2023-05-18T07:31:03;4.03;;;0.50;;
70270;SDS011;57680;54.292;18.598;2023-05-18T07:33:29;1.83;;;0.40;;
70270;SDS011;57680;54.292;18.598;2023-05-18T07:35:54;1.70;;;0.60;;
70270;SDS011;57680;54.292;18.598;2023-05-18T07:38:19;1.53;;;0.30;;
70270;SDS011;57680;54.292;18.598;2023-05-18T07:40:45;2.67;;;0.40;;
70270;SDS011;57680;54.292;18.598;2023-05-18T07:43:10;1.52;;;0.40;;
70270;SDS011;57680;54.292;18.598;2023-05-18T07:45:36;2.33;;;0.50;;
70270;SDS011;57680;54.292;18.598;2023-05-18T07:48:01;4.03;;;0.47;;
70270;SDS011;57680;54.292;18.598;2023-05-18T07:50:27;1.80;;;0.23;;
70270;SDS011;57680;54.292;18.598;2023-05-18T07:52:52;3.33;;;0.47;;
70270;SDS011;57680;54.292;18.598;2023-05-18T07:55:17;1.97;;;0.40;;
70270;SDS011;57680;54.292;18.598;2023-05-18T07:57:43;1.20;;;0.20;;
70270;SDS011;57680;54.292;18.598;2023-05-18T08:00:10;1.75;;;0.50;;
70270;SDS011;57680;54.292;18.598;2023-05-18T08:02:36;2.53;;;0.45;;
70270;SDS011;57680;54.292;18.598;2023-05-18T08:05:01;2.80;;;0.50;;
70270;SDS011;57680;54.292;18.598;2023-05-18T08:07:27;1.20;;;0.30;;
70270;SDS011;57680;54.292;18.598;2023-05-18T08:09:52;1.50;;;0.40;;
70270;SDS011;57680;54.292;18.598;2023-05-18T08:12:18;0.93;;;0.30;;
70270;SDS011;57680;54.292;18.598;2023-05-18T08:14:43;3.10;;;0.50;;
70270;SDS011;57680;54.292;18.598;2023-05-18T08:17:09;4.47;;;0.70;;
70270;SDS011;57680;54.292;18.598;2023-05-18T08:19:34;2.60;;;0.40;;
70270;SDS011;57680;54.292;18.598;2023-05-18T08:22:00;2.10;;;0.57;;
70270;SDS011;57680;54.292;18.598;2023-05-18T08:24:25;2.65;;;0.32;;
70270;SDS011;57680;54.292;18.598;2023-05-18T08:26:51;1.63;;;0.33;;
70270;SDS011;57680;54.292;18.598;2023-05-18T08:29:16;3.70;;;0.50;;
70270;SDS011;57680;54.292;18.598;2023-05-18T08:31:42;3.13;;;0.40;;
70270;SDS011;57680;54.292;18.598;2023-05-18T08:34:07;2.67;;;0.37;;
70270;SDS011;57680;54.292;18.598;2023-05-18T08:36:34;5.30;;;0.43;;
70270;SDS011;57680;54.292;18.598;2023-05-18T08:39:00;3.42;;;0.40;;
70270;SDS011;57680;54.292;18.598;2023-05-18T08:41:28;3.90;;;0.50;;
70270;SDS011;57680;54.292;18.598;2023-05-18T08:44:02;4.95;;;0.50;;
70270;SDS011;57680;54.292;18.598;2023-05-18T08:46:34;2.53;;;0.40;;
70270;SDS011;57680;54.292;18.598;2023-05-18T08:49:03;4.40;;;0.30;;
70270;SDS011;57680;54.292;18.598;2023-05-18T08:51:32;2.45;;;0.40;;
70270;SDS011;57680;54.292;18.598;2023-05-18T08:53:58;5.20;;;0.40;;
70270;SDS011;57680;54.292;18.598;2023-05-18T08:56:25;1.30;;;0.20;;
70270;SDS011;57680;54.292;18.598;2023-05-18T08:58:51;2.60;;;0.20;;
70270;SDS011;57680;54.292;18.598;2023-05-18T09:01:19;3.40;;;0.30;;
70270;SDS011;57680;54.292;18.598;2023-05-18T09:03:45;3.23;;;0.20;;
70270;SDS011;57680;54.292;18.598;2023-05-18T09:06:12;3.53;;;0.30;;
70270;SDS011;57680;54.292;18.598;2023-05-18T09:08:38;3.55;;;0.40;;
70270;SDS011;57680;54.292;18.598;2023-05-18T09:11:05;3.15;;;0.40;;
70270;SDS011;57680;54.292;18.598;2023-05-18T09:13:31;2.58;;;0.30;;
70270;SDS011;57680;54.292;18.598;2023-05-18T09:15:56;3.07;;;0.40;;
70270;SDS011;57680;54.292;18.598;2023-05-18T09:18:22;1.63;;;0.40;;
70270;SDS011;57680;54.292;18.598;2023-05-18T09:20:47;2.90;;;0.37;;
70270;SDS011;57680;54.292;18.598;2023-05-18T09:23:14;2.27;;;0.40;;
70270;SDS011;57680;54.292;18.598;2023-05-18T09:25:42;3.33;;;0.30;;
70270;SDS011;57680;54.292;18.598;2023-05-18T09:28:09;1.57;;;0.40;;
70270;SDS011;57680;54.292;18.598;2023-05-18T09:30:41;2.60;;;0.50;;
70270;SDS011;57680;54.292;18.598;2023-05-18T09:35:44;2.08;;;0.40;;
70270;SDS011;57680;54.292;18.598;2023-05-18T09:38:11;3.97;;;0.57;;
70270;SDS011;57680;54.292;18.598;2023-05-18T09:40:42;3.03;;;0.40;;
70270;SDS011;57680;54.292;18.598;2023-05-18T09:43:09;4.25;;;0.50;;
70270;SDS011;57680;54.292;18.598;2023-05-18T09:45:40;3.45;;;0.50;;
70270;SDS011;57680;54.292;18.598;2023-05-18T09:48:07;3.13;;;0.50;;
70270;SDS011;57680;54.292;18.598;2023-05-18T09:50:33;3.13;;;0.40;;
70270;SDS011;57680;54.292;18.598;2023-05-18T09:52:59;2.37;;;0.50;;
70270;SDS011;57680;54.292;18.598;2023-05-18T09:55:24;1.73;;;0.40;;
70270;SDS011;57680;54.292;18.598;2023-05-18T09:57:50;2.77;;;0.60;;
70270;SDS011;57680;54.292;18.598;2023-05-18T10:00:16;2.67;;;0.77;;
70270;SDS011;57680;54.292;18.598;2023-05-18T10:02:45;4.43;;;0.50;;
70270;SDS011;57680;54.292;18.598;2023-05-18T10:05:18;3.38;;;0.50;;
70270;SDS011;57680;54.292;18.598;2023-05-18T10:07:51;4.20;;;0.50;;
70270;SDS011;57680;54.292;18.598;2023-05-18T10:10:21;2.67;;;0.40;;
70270;SDS011;57680;54.292;18.598;2023-05-18T10:12:51;3.08;;;0.50;;
70270;SDS011;57680;54.292;18.598;2023-05-18T10:15:20;3.08;;;0.40;;
70270;SDS011;57680;54.292;18.598;2023-05-18T10:17:47;3.20;;;0.50;;
70270;SDS011;57680;54.292;18.598;2023-05-18T10:20:17;6.75;;;0.50;;
70270;SDS011;57680;54.292;18.598;2023-05-18T10:22:47;1.33;;;0.40;;
70270;SDS011;57680;54.292;18.598;2023-05-18T10:25:17;5.30;;;0.63;;
70270;SDS011;57680;54.292;18.598;2023-05-18T10:27:45;1.60;;;0.50;;
70270;SDS011;57680;54.292;18.598;2023-05-18T10:30:13;4.18;;;0.40;;
70270;SDS011;57680;54.292;18.598;2023-05-18T10:32:39;2.15;;;0.30;;
70270;SDS011;57680;54.292;18.598;2023-05-18T10:35:06;2.43;;;0.40;;
70270;SDS011;57680;54.292;18.598;2023-05-18T10:37:32;3.88;;;0.40;;
70270;SDS011;57680;54.292;18.598;2023-05-18T10:40:00;1.58;;;0.30;;
70270;SDS011;57680;54.292;18.598;2023-05-18T10:42:27;2.72;;;0.40;;
70270;SDS011;57680;54.292;18.598;2023-05-18T10:44:54;4.07;;;0.63;;
70270;SDS011;57680;54.292;18.598;2023-05-18T10:47:25;1.77;;;0.40;;
70270;SDS011;57680;54.292;18.598;2023-05-18T10:49:51;1.90;;;0.50;;
70270;SDS011;57680;54.292;18.598;2023-05-18T10:52:18;2.55;;;0.40;;
70270;SDS011;57680;54.292;18.598;2023-05-18T10:54:44;3.85;;;0.82;;
70270;SDS011;57680;54.292;18.598;2023-05-18T10:57:10;3.93;;;0.50;;
70270;SDS011;57680;54.292;18.598;2023-05-18T10:59:40;3.13;;;0.40;;
70270;SDS011;57680;54.292;18.598;2023-05-18T11:02:07;2.38;;;0.38;;
70270;SDS011;57680;54.292;18.598;2023-05-18T11:04:37;1.35;;;0.40;;
70270;SDS011;57680;54.292;18.598;2023-05-18T11:07:03;1.33;;;0.30;;
70270;SDS011;57680;54.292;18.598;2023-05-18T11:09:29;2.73;;;0.30;;
70270;SDS011;57680;54.292;18.598;2023-05-18T11:11:58;3.08;;;0.30;;
70270;SDS011;57680;54.292;18.598;2023-05-18T11:16:53;3.00;;;0.30;;
70270;SDS011;57680;54.292;18.598;2023-05-18T11:19:38;2.50;;;0.40;;
70270;SDS011;57680;54.292;18.598;2023-05-18T11:22:09;2.20;;;0.20;;
70270;SDS011;57680;54.292;18.598;2023-05-18T11:24:35;3.78;;;0.43;;
70270;SDS011;57680;54.292;18.598;2023-05-18T11:29:40;4.40;;;0.50;;
70270;SDS011;57680;54.292;18.598;2023-05-18T11:32:23;2.50;;;0.40;;
70270;SDS011;57680;54.292;18.598;2023-05-18T11:34:50;1.95;;;0.30;;
70270;SDS011;57680;54.292;18.598;2023-05-18T11:40:04;2.13;;;0.30;;
70270;SDS011;57680;54.292;18.598;2023-05-18T11:42:34;2.58;;;0.50;;
70270;SDS011;57680;54.292;18.598;2023-05-18T11:45:06;3.90;;;0.33;;
70270;SDS011;57680;54.292;18.598;2023-05-18T11:47:33;2.20;;;0.38;;
70270;SDS011;57680;54.292;18.598;2023-05-18T11:49:59;2.33;;;0.30;;
70270;SDS011;57680;54.292;18.598;2023-05-18T11:52:24;3.33;;;0.30;;
70270;SDS011;57680;54.292;18.598;2023-05-18T11:57:19;1.98;;;0.60;;
70270;SDS011;57680;54.292;18.598;2023-05-18T11:59:57;1.60;;;0.30;;
70270;SDS011;57680;54.292;18.598;2023-05-18T12:02:23;2.60;;;0.40;;
70270;SDS011;57680;54.292;18.598;2023-05-18T12:04:53;4.57;;;0.40;;
70270;SDS011;57680;54.292;18.598;2023-05-18T12:07:22;1.83;;;0.20;;
70270;SDS011;57680;54.292;18.598;2023-05-18T12:09:48;2.13;;;0.30;;
70270;SDS011;57680;54.292;18.598;2023-05-18T12:12:15;2.87;;;0.40;;
70270;SDS011;57680;54.292;18.598;2023-05-18T12:14:42;2.42;;;0.30;;
70270;SDS011;57680;54.292;18.598;2023-05-18T12:17:08;1.02;;;0.40;;
70270;SDS011;57680;54.292;18.598;2023-05-18T12:19:37;2.25;;;0.25;;
70270;SDS011;57680;54.292;18.598;2023-05-18T12:22:07;1.60;;;0.30;;
70270;SDS011;57680;54.292;18.598;2023-05-18T12:24:33;2.57;;;0.30;;
70270;SDS011;57680;54.292;18.598;2023-05-18T12:26:58;1.43;;;0.30;;
70270;SDS011;57680;54.292;18.598;2023-05-18T12:29:24;1.35;;;0.30;;
70270;SDS011;57680;54.292;18.598;2023-05-18T12:31:49;1.87;;;0.30;;
70270;SDS011;57680;54.292;18.598;2023-05-18T12:34:15;1.58;;;0.40;;
70270;SDS011;57680;54.292;18.598;2023-05-18T12:36:58;3.77;;;0.40;;
70270;SDS011;57680;54.292;18.598;2023-05-18T12:39:24;1.85;;;0.35;;
70270;SDS011;57680;54.292;18.598;2023-05-18T12:41:49;2.60;;;0.30;;
70270;SDS011;57680;54.292;18.598;2023-05-18T12:44:15;2.92;;;0.43;;
70270;SDS011;57680;54.292;18.598;2023-05-18T12:46:40;5.73;;;0.30;;
70270;SDS011;57680;54.292;18.598;2023-05-18T12:49:06;2.42;;;0.30;;
70270;SDS011;57680;54.292;18.598;2023-05-18T12:51:33;3.57;;;0.60;;
70270;SDS011;57680;54.292;18.598;2023-05-18T12:54:00;3.85;;;0.30;;
70270;SDS011;57680;54.292;18.598;2023-05-18T12:56:26;0.95;;;0.20;;
70270;SDS011;57680;54.292;18.598;2023-05-18T12:58:57;3.60;;;0.33;;
70270;SDS011;57680;54.292;18.598;2023-05-18T13:01:24;3.42;;;0.28;;
70270;SDS011;57680;54.292;18.598;2023-05-18T13:03:59;1.75;;;0.32;;
70270;SDS011;57680;54.292;18.598;2023-05-18T13:06:25;2.77;;;0.30;;
70270;SDS011;57680;54.292;18.598;2023-05-18T13:08:55;3.42;;;0.40;;
70270;SDS011;57680;54.292;18.598;2023-05-18T13:11:23;1.90;;;0.30;;
70270;SDS011;57680;54.292;18.598;2023-05-18T13:16:27;3.17;;;0.43;;
70270;SDS011;57680;54.292;18.598;2023-05-18T13:18:57;6.50;;;0.60;;
70270;SDS011;57680;54.292;18.598;2023-05-18T13:21:24;3.38;;;0.65;;
70270;SDS011;57680;54.292;18.598;2023-05-18T13:23:49;5.00;;;0.60;;
70270;SDS011;57680;54.292;18.598;2023-05-18T13:26:15;5.22;;;0.70;;
70270;SDS011;57680;54.292;18.598;2023-05-18T13:28:41;4.57;;;0.27;;
70270;SDS011;57680;54.292;18.598;2023-05-18T13:31:06;4.00;;;0.80;;
70270;SDS011;57680;54.292;18.598;2023-05-18T13:33:32;4.77;;;1.00;;
70270;SDS011;57680;54.292;18.598;2023-05-18T13:35:57;6.00;;;0.52;;
70270;SDS011;57680;54.292;18.598;2023-05-18T13:38:23;4.50;;;0.80;;
70270;SDS011;57680;54.292;18.598;2023-05-18T13:40:49;5.83;;;0.70;;
70270;SDS011;57680;54.292;18.598;2023-05-18T13:43:14;5.90;;;0.60;;
70270;SDS011;57680;54.292;18.598;2023-05-18T13:45:40;4.35;;;0.40;;
70270;SDS011;57680;54.292;18.598;2023-05-18T13:48:06;4.28;;;0.70;;
70270;SDS011;57680;54.292;18.598;2023-05-18T13:50:32;5.80;;;0.60;;
70270;SDS011;57680;54.292;18.598;2023-05-18T13:52:57;3.13;;;0.45;;
70270;SDS011;57680;54.292;18.598;2023-05-18T13:55:23;3.30;;;0.60;;
70270;SDS011;57680;54.292;18.598;2023-05-18T13:57:48;2.97;;;0.20;;
70270;SDS011;57680;54.292;18.598;2023-05-18T14:00:14;2.63;;;0.30;;
70270;SDS011;57680;54.292;18.598;2023-05-18T14:02:40;1.77;;;0.40;;
70270;SDS011;57680;54.292;18.598;2023-05-18T14:05:10;6.45;;;0.40;;
70270;SDS011;57680;54.292;18.598;2023-05-18T14:07:40;1.80;;;0.22;;
70270;SDS011;57680;54.292;18.598;2023-05-18T14:10:07;2.70;;;0.40;;
70270;SDS011;57680;54.292;18.598;2023-05-18T14:12:34;2.23;;;0.30;;
70270;SDS011;57680;54.292;18.598;2023-05-18T14:14:59;4.22;;;0.65;;
70270;SDS011;57680;54.292;18.598;2023-05-18T14:17:26;6.85;;;0.70;;
70270;SDS011;57680;54.292;18.598;2023-05-18T14:19:51;5.55;;;0.80;;
70270;SDS011;57680;54.292;18.598;2023-05-18T14:22:17;3.00;;;0.63;;
70270;SDS011;57680;54.292;18.598;2023-05-18T14:24:42;3.10;;;0.37;;
70270;SDS011;57680;54.292;18.598;2023-05-18T14:27:09;2.10;;;0.60;;
70270;SDS011;57680;54.292;18.598;2023-05-18T14:29:34;4.50;;;0.90;;
70270;SDS011;57680;54.292;18.598;2023-05-18T14:32:00;2.90;;;0.40;;
70270;SDS011;57680;54.292;18.598;2023-05-18T14:34:26;3.13;;;0.70;;
70270;SDS011;57680;54.292;18.598;2023-05-18T14:36:55;5.05;;;0.75;;
70270;SDS011;57680;54.292;18.598;2023-05-18T14:39:24;3.22;;;0.43;;
70270;SDS011;57680;54.292;18.598;2023-05-18T14:41:53;5.60;;;0.70;;
70270;SDS011;57680;54.292;18.598;2023-05-18T14:44:18;4.67;;;0.90;;
70270;SDS011;57680;54.292;18.598;2023-05-18T14:46:44;5.15;;;0.60;;
70270;SDS011;57680;54.292;18.598;2023-05-18T14:49:09;5.70;;;0.70;;
70270;SDS011;57680;54.292;18.598;2023-05-18T14:51:34;4.00;;;0.40;;
70270;SDS011;57680;54.292;18.598;2023-05-18T14:54:00;4.03;;;0.53;;